Rona II — MPKR2 — position and weather

sailwx.info

Track history (hours):
 
Tides and Currents Weather Stations Pressure Air Temp Water Temp Dewpoint Dewpoint Depression Visibility Wind Speed Wind Dir Waves Ship Positions

Rona II

Last reported at 2016-Sep-17 12:33 UTC. Time now 2016-Sep-27 05:19 UTC.
Position N 50°46' W 001°10'.
Warning: this ship's position is 9 days out of date.

Length 22 m.

Type: Sailing vessel. MMSI: 232714000.

Date/timePositionNaut miles runAvg speedWind from/ knotsBaromVisibWave heightAir tempDewpointWater temp
2016-Sep-17 12:33N 50°46' W 001°10'1 0.5
2016-Sep-17 10:13N 50°45' W 001°09'32 0.7
2016-Sep-15 12:30N 50°37' W 001°57'91 1.9
2016-Sep-13 11:33N 49°34' W 000°15'11 5.6
2016-Sep-13 09:33N 49°28' W 000°01'10 4.9
2016-Sep-13 07:33N 49°26' E 000°14'0 0.0
2016-Sep-12 14:33N 49°26' E 000°14'4 3.7
2016-Sep-12 13:33N 49°26' E 000°08'5 4.7
2016-Sep-12 12:33N 49°27' E 000°01'3 3.3
2016-Sep-12 11:33N 49°29' E 000°06'0 0.1
2016-Sep-12 10:30N 49°29' E 000°06'0 0.0
2016-Sep-12 07:24N 49°29' E 000°06'0 0.0
2016-Sep-12 06:33N 49°29' E 000°06'0 0.0
2016-Sep-12 03:33N 49°29' E 000°06'0 0.0
2016-Sep-12 01:33N 49°29' E 000°06'0 0.0
2016-Sep-11 23:33N 49°29' E 000°06'0 0.0
2016-Sep-11 22:33N 49°29' E 000°06'0 0.0
2016-Sep-11 21:33N 49°29' E 000°06'0 0.4
2016-Sep-11 20:33N 49°29' E 000°05'5 5.2
2016-Sep-11 19:33N 49°31' W 000°03'5 4.7
2016-Sep-11 18:33N 49°33' W 000°09'8 7.5
2016-Sep-11 17:32N 49°39' W 000°16'  
Track history (hours):
 
Tides and Currents Weather Stations Pressure Air Temp Water Temp Dewpoint Dewpoint Depression Visibility Wind Speed Wind Dir Waves Ship Positions

Rona II

Last reported at 2016-Sep-17 12:33 UTC. Time now 2016-Sep-27 05:19 UTC.
Position N 50°46' W 001°10'.
Warning: this ship's position is 9 days out of date.

Length 22 m.

Type: Sailing vessel. MMSI: 232714000.

Date/timePositionNaut miles runAvg speedWind from/ knotsBaromVisibWave heightAir tempDewpointWater temp
2016-Sep-17 12:33N 50°46' W 001°10'1 0.5
2016-Sep-17 10:13N 50°45' W 001°09'32 0.7
2016-Sep-15 12:30N 50°37' W 001°57'91 1.9
2016-Sep-13 11:33N 49°34' W 000°15'11 5.6
2016-Sep-13 09:33N 49°28' W 000°01'10 4.9
2016-Sep-13 07:33N 49°26' E 000°14'0 0.0
2016-Sep-12 14:33N 49°26' E 000°14'4 3.7
2016-Sep-12 13:33N 49°26' E 000°08'5 4.7
2016-Sep-12 12:33N 49°27' E 000°01'3 3.3
2016-Sep-12 11:33N 49°29' E 000°06'0 0.1
2016-Sep-12 10:30N 49°29' E 000°06'0 0.0
2016-Sep-12 07:24N 49°29' E 000°06'0 0.0
2016-Sep-12 06:33N 49°29' E 000°06'0 0.0
2016-Sep-12 03:33N 49°29' E 000°06'0 0.0
2016-Sep-12 01:33N 49°29' E 000°06'0 0.0
2016-Sep-11 23:33N 49°29' E 000°06'0 0.0
2016-Sep-11 22:33N 49°29' E 000°06'0 0.0
2016-Sep-11 21:33N 49°29' E 000°06'0 0.4
2016-Sep-11 20:33N 49°29' E 000°05'5 5.2
2016-Sep-11 19:33N 49°31' W 000°03'5 4.7
2016-Sep-11 18:33N 49°33' W 000°09'8 7.5
2016-Sep-11 17:32N 49°39' W 000°16'  

Dump ship's entire track history